Alamota, Kansas
Current Conditions -  °F | °C
As of 4:54 AM on Wednesday 26 Nov 2014 (Local Time) from KGCK Reporting Station
Broken Clouds Broken Clouds  
Wind Chill: 27°   Ceiling: 8500
Heat Index: 37°   Visibility: 10mi
Dew Point: 30°   Wind: 20mph
Humidity: 76%   Direction: 330°NNW
Pressure: 30.09"   Gusts: NA
Location:  38.4812°N, 100.393°W
Report Text: KGCK 261054Z AUTO 33017KT 10SM BKN085 BKN100 03/M01 A3009 RMK AO2 SLP194 T00281011
Loading
Personal Weather Stations






























Interactive Weather Map New forecast layout! Learn more

10-Day Weather Forecast

Advertisements
Track Severe Weather on mobile